Orbital elements of SL-12 DEB
| Launched | 22 November 1990 |
| Flight ended | – |
| Launch site | Tyuratam Missile and Space Center, Kazakhstan (Also known as Baikonur Cosmodrome) |
| Owner | Commonwealth of Independent States (former USSR) |
| NORAD ID | 26795 |
| Date fetched |
Epoch osculation |
Inc. [°] |
Ecc. | RA asc node [hr] |
Arg Peri. [°] |
Mean anom [°] |
Mean motion [rev/day] |
Abs. mag |
| Date fetched |
Epoch osculation |
Inc. [°] |
Ecc. | RA asc node [hr] |
Arg Peri. [°] |
Mean anom [°] |
Mean motion [rev/day] |
Abs. mag |
| 2026 May 05 17:57 | 2026 May 04 18:53:30 | 45.5961 | 0.07599 | 19.2432 | 196.9520 | 160.4406 | 10.15421 | – |
| 2026 May 04 17:57 | 2026 Apr 29 20:45:41 | 45.5838 | 0.06682 | 19.9295 | 185.4837 | 160.4406 | 10.15421 | – |
| 2026 May 03 17:57 | 2026 Apr 29 20:45:41 | 45.5838 | 0.06682 | 19.9295 | 185.4837 | 160.4406 | 10.15421 | – |
| 2026 May 02 17:57 | 2026 Apr 29 20:45:41 | 45.5838 | 0.06682 | 19.9295 | 185.4837 | 160.4406 | 10.15421 | – |
| 2026 May 01 17:56 | 2026 Apr 29 20:45:41 | 45.5838 | 0.06682 | 19.9295 | 185.4837 | 160.4406 | 10.15421 | – |
| 2026 Apr 30 17:56 | 2026 Apr 29 20:45:41 | 45.5838 | 0.06682 | 19.9295 | 185.4837 | 160.4406 | 10.15421 | – |
| 2026 Apr 29 17:57 | 2026 Apr 24 13:06:34 | 45.5716 | 0.05693 | 20.6690 | 173.9081 | 160.4406 | 10.15421 | – |
| 2026 Apr 28 17:56 | 2026 Apr 24 13:06:34 | 45.5716 | 0.05693 | 20.6690 | 173.9081 | 160.4406 | 10.15421 | – |
| 2026 Apr 27 17:58 | 2026 Apr 24 13:06:34 | 45.5716 | 0.05693 | 20.6690 | 173.9081 | 160.4406 | 10.15421 | – |
| 2026 Apr 26 17:58 | 2026 Apr 24 13:06:34 | 45.5716 | 0.05693 | 20.6690 | 173.9081 | 160.4406 | 10.15421 | – |
| 2026 Apr 25 17:58 | 2026 Apr 24 13:06:34 | 45.5716 | 0.05693 | 20.6690 | 173.9081 | 160.4406 | 10.15421 | – |
| 2026 Apr 24 17:59 | 2026 Apr 24 13:06:34 | 45.5716 | 0.05693 | 20.6690 | 173.9081 | 160.4406 | 10.15421 | – |
| 2026 Apr 23 17:57 | 2026 Apr 15 06:45:19 | 45.5017 | 0.03994 | 21.9532 | 157.6281 | 160.4406 | 10.15421 | – |
| 2026 Apr 22 17:57 | 2026 Apr 15 06:45:19 | 45.5017 | 0.03994 | 21.9532 | 157.6281 | 160.4406 | 10.15421 | – |
| 2026 Apr 21 17:57 | 2026 Apr 15 06:45:19 | 45.5017 | 0.03994 | 21.9532 | 157.6281 | 160.4406 | 10.15421 | – |
| 2026 Apr 20 17:57 | 2026 Apr 15 06:45:19 | 45.5017 | 0.03994 | 21.9532 | 157.6281 | 160.4406 | 10.15421 | – |
| 2026 Apr 19 17:58 | 2026 Apr 15 06:45:19 | 45.5017 | 0.03994 | 21.9532 | 157.6281 | 160.4406 | 10.15421 | – |
| 2026 Apr 18 17:56 | 2026 Apr 13 00:19:32 | 45.4841 | 0.03581 | 22.2676 | 154.9678 | 160.4406 | 10.15421 | – |
| 2026 Apr 16 17:57 | 2026 Apr 13 00:19:32 | 45.4841 | 0.03581 | 22.2676 | 154.9678 | 160.4406 | 10.15421 | – |
| 2026 Apr 14 17:57 | 2026 Apr 13 00:19:32 | 45.4841 | 0.03581 | 22.2676 | 154.9678 | 160.4406 | 10.15421 | – |
| 2026 Apr 13 17:57 | 2026 Apr 13 00:19:32 | 45.4841 | 0.03581 | 22.2676 | 154.9678 | 160.4406 | 10.15421 | – |
| 2026 Apr 12 17:57 | 2026 Apr 08 09:04:33 | 45.4558 | 0.02770 | 22.9098 | 152.4973 | 160.4406 | 10.15421 | – |
| 2026 Apr 11 17:57 | 2026 Apr 08 09:04:33 | 45.4558 | 0.02770 | 22.9098 | 152.4973 | 160.4406 | 10.15421 | – |
| 2026 Apr 10 17:58 | 2026 Apr 08 09:04:33 | 45.4558 | 0.02770 | 22.9098 | 152.4973 | 160.4406 | 10.15421 | – |
| 2026 Apr 09 18:01 | 2026 Apr 08 09:04:33 | 45.4558 | 0.02770 | 22.9098 | 152.4973 | 160.4406 | 10.15421 | – |
| 2026 Apr 08 17:57 | 2026 Apr 08 09:04:33 | 45.4558 | 0.02770 | 22.9098 | 152.4973 | 160.4406 | 10.15421 | – |